sensor_id;sensor_type;location;lat;lon;timestamp;P1;durP1;ratioP1;P2;durP2;ratioP2
4268;SDS011;2148;48.554;7.834;2022-08-03T00:01:38;3.07;;;2.80;;
4268;SDS011;2148;48.554;7.834;2022-08-03T00:04:05;3.13;;;2.60;;
4268;SDS011;2148;48.554;7.834;2022-08-03T00:06:30;2.87;;;2.57;;
4268;SDS011;2148;48.554;7.834;2022-08-03T00:08:56;4.50;;;2.77;;
4268;SDS011;2148;48.554;7.834;2022-08-03T00:11:21;4.90;;;2.57;;
4268;SDS011;2148;48.554;7.834;2022-08-03T00:13:46;4.80;;;2.80;;
4268;SDS011;2148;48.554;7.834;2022-08-03T00:16:12;2.83;;;2.50;;
4268;SDS011;2148;48.554;7.834;2022-08-03T00:18:37;3.57;;;2.93;;
4268;SDS011;2148;48.554;7.834;2022-08-03T00:21:03;3.97;;;2.70;;
4268;SDS011;2148;48.554;7.834;2022-08-03T00:23:28;3.60;;;2.90;;
4268;SDS011;2148;48.554;7.834;2022-08-03T00:25:54;3.97;;;3.33;;
4268;SDS011;2148;48.554;7.834;2022-08-03T00:28:19;5.77;;;3.50;;
4268;SDS011;2148;48.554;7.834;2022-08-03T00:30:44;6.40;;;3.00;;
4268;SDS011;2148;48.554;7.834;2022-08-03T00:33:09;3.93;;;3.20;;
4268;SDS011;2148;48.554;7.834;2022-08-03T00:35:35;4.03;;;3.03;;
4268;SDS011;2148;48.554;7.834;2022-08-03T00:38:00;4.80;;;3.10;;
4268;SDS011;2148;48.554;7.834;2022-08-03T00:40:25;3.90;;;3.13;;
4268;SDS011;2148;48.554;7.834;2022-08-03T00:42:55;5.00;;;3.47;;
4268;SDS011;2148;48.554;7.834;2022-08-03T00:45:31;3.83;;;3.13;;
4268;SDS011;2148;48.554;7.834;2022-08-03T00:47:58;3.40;;;3.10;;
4268;SDS011;2148;48.554;7.834;2022-08-03T00:50:24;4.13;;;2.97;;
4268;SDS011;2148;48.554;7.834;2022-08-03T00:52:55;5.73;;;3.30;;
4268;SDS011;2148;48.554;7.834;2022-08-03T00:55:21;4.07;;;3.13;;
4268;SDS011;2148;48.554;7.834;2022-08-03T00:57:47;3.43;;;3.13;;
4268;SDS011;2148;48.554;7.834;2022-08-03T01:00:14;5.13;;;3.10;;
4268;SDS011;2148;48.554;7.834;2022-08-03T01:02:42;6.67;;;3.20;;
4268;SDS011;2148;48.554;7.834;2022-08-03T01:05:08;3.20;;;2.90;;
4268;SDS011;2148;48.554;7.834;2022-08-03T01:10:16;3.67;;;3.20;;
4268;SDS011;2148;48.554;7.834;2022-08-03T01:13:09;3.90;;;2.93;;
4268;SDS011;2148;48.554;7.834;2022-08-03T01:15:42;4.03;;;3.00;;
4268;SDS011;2148;48.554;7.834;2022-08-03T01:18:17;3.53;;;3.10;;
4268;SDS011;2148;48.554;7.834;2022-08-03T01:20:55;3.97;;;3.67;;
4268;SDS011;2148;48.554;7.834;2022-08-03T01:26:12;3.77;;;3.03;;
4268;SDS011;2148;48.554;7.834;2022-08-03T01:31:43;3.77;;;3.37;;
4268;SDS011;2148;48.554;7.834;2022-08-03T01:34:13;3.67;;;3.20;;
4268;SDS011;2148;48.554;7.834;2022-08-03T01:36:42;3.63;;;3.20;;
4268;SDS011;2148;48.554;7.834;2022-08-03T01:39:08;4.30;;;3.30;;
4268;SDS011;2148;48.554;7.834;2022-08-03T01:41:57;3.47;;;3.17;;
4268;SDS011;2148;48.554;7.834;2022-08-03T01:44:25;3.50;;;3.20;;
4268;SDS011;2148;48.554;7.834;2022-08-03T01:46:53;3.67;;;3.37;;
4268;SDS011;2148;48.554;7.834;2022-08-03T01:49:20;4.00;;;3.63;;
4268;SDS011;2148;48.554;7.834;2022-08-03T01:51:46;3.50;;;3.20;;
4268;SDS011;2148;48.554;7.834;2022-08-03T01:54:12;4.93;;;3.10;;
4268;SDS011;2148;48.554;7.834;2022-08-03T01:56:38;4.20;;;3.80;;
4268;SDS011;2148;48.554;7.834;2022-08-03T01:59:04;4.17;;;3.60;;
4268;SDS011;2148;48.554;7.834;2022-08-03T02:01:31;4.43;;;3.63;;
4268;SDS011;2148;48.554;7.834;2022-08-03T02:03:57;3.70;;;3.40;;
4268;SDS011;2148;48.554;7.834;2022-08-03T02:06:23;3.83;;;3.53;;
4268;SDS011;2148;48.554;7.834;2022-08-03T02:08:48;5.13;;;3.60;;
4268;SDS011;2148;48.554;7.834;2022-08-03T02:11:15;3.77;;;3.47;;
4268;SDS011;2148;48.554;7.834;2022-08-03T02:13:40;5.10;;;4.00;;
4268;SDS011;2148;48.554;7.834;2022-08-03T02:16:06;3.70;;;3.40;;
4268;SDS011;2148;48.554;7.834;2022-08-03T02:18:31;5.17;;;3.97;;
4268;SDS011;2148;48.554;7.834;2022-08-03T02:20:58;4.20;;;3.83;;
4268;SDS011;2148;48.554;7.834;2022-08-03T02:23:25;5.93;;;3.73;;
4268;SDS011;2148;48.554;7.834;2022-08-03T02:25:52;3.60;;;3.30;;
4268;SDS011;2148;48.554;7.834;2022-08-03T02:28:18;4.33;;;3.93;;
4268;SDS011;2148;48.554;7.834;2022-08-03T02:30:45;4.50;;;3.80;;
4268;SDS011;2148;48.554;7.834;2022-08-03T02:33:12;3.77;;;3.40;;
4268;SDS011;2148;48.554;7.834;2022-08-03T02:35:42;4.47;;;4.03;;
4268;SDS011;2148;48.554;7.834;2022-08-03T02:38:08;3.63;;;3.20;;
4268;SDS011;2148;48.554;7.834;2022-08-03T02:40:34;3.93;;;3.60;;
4268;SDS011;2148;48.554;7.834;2022-08-03T02:43:04;3.40;;;3.20;;
4268;SDS011;2148;48.554;7.834;2022-08-03T02:45:32;3.80;;;3.50;;
4268;SDS011;2148;48.554;7.834;2022-08-03T02:48:00;3.57;;;3.33;;
4268;SDS011;2148;48.554;7.834;2022-08-03T02:50:27;4.63;;;3.63;;
4268;SDS011;2148;48.554;7.834;2022-08-03T02:52:54;4.37;;;3.67;;
4268;SDS011;2148;48.554;7.834;2022-08-03T02:55:21;4.00;;;3.60;;
4268;SDS011;2148;48.554;7.834;2022-08-03T02:57:47;3.70;;;3.40;;
4268;SDS011;2148;48.554;7.834;2022-08-03T03:00:12;4.60;;;4.20;;
4268;SDS011;2148;48.554;7.834;2022-08-03T03:02:39;4.57;;;4.17;;
4268;SDS011;2148;48.554;7.834;2022-08-03T03:05:05;4.10;;;3.73;;
4268;SDS011;2148;48.554;7.834;2022-08-03T03:07:32;4.00;;;3.60;;
4268;SDS011;2148;48.554;7.834;2022-08-03T03:09:58;4.70;;;4.30;;
4268;SDS011;2148;48.554;7.834;2022-08-03T03:12:24;4.20;;;3.80;;
4268;SDS011;2148;48.554;7.834;2022-08-03T03:14:49;4.30;;;3.80;;
4268;SDS011;2148;48.554;7.834;2022-08-03T03:17:15;4.97;;;3.73;;
4268;SDS011;2148;48.554;7.834;2022-08-03T03:19:42;4.03;;;3.70;;
4268;SDS011;2148;48.554;7.834;2022-08-03T03:22:09;4.63;;;4.23;;
4268;SDS011;2148;48.554;7.834;2022-08-03T03:24:34;4.40;;;3.73;;
4268;SDS011;2148;48.554;7.834;2022-08-03T03:27:00;4.20;;;3.80;;
4268;SDS011;2148;48.554;7.834;2022-08-03T03:29:26;6.27;;;3.93;;
4268;SDS011;2148;48.554;7.834;2022-08-03T03:31:52;5.43;;;3.70;;
4268;SDS011;2148;48.554;7.834;2022-08-03T03:34:17;7.27;;;4.37;;
4268;SDS011;2148;48.554;7.834;2022-08-03T03:36:43;3.93;;;3.60;;
4268;SDS011;2148;48.554;7.834;2022-08-03T03:39:08;5.30;;;4.47;;
4268;SDS011;2148;48.554;7.834;2022-08-03T03:41:34;6.03;;;4.23;;
4268;SDS011;2148;48.554;7.834;2022-08-03T03:44:00;4.30;;;3.60;;
4268;SDS011;2148;48.554;7.834;2022-08-03T03:46:25;3.83;;;3.53;;
4268;SDS011;2148;48.554;7.834;2022-08-03T03:48:50;5.00;;;3.40;;
4268;SDS011;2148;48.554;7.834;2022-08-03T03:51:16;4.40;;;3.50;;
4268;SDS011;2148;48.554;7.834;2022-08-03T03:54:03;4.10;;;3.80;;
4268;SDS011;2148;48.554;7.834;2022-08-03T03:56:28;4.03;;;3.63;;
4268;SDS011;2148;48.554;7.834;2022-08-03T03:58:54;4.30;;;3.97;;
4268;SDS011;2148;48.554;7.834;2022-08-03T04:01:20;3.83;;;3.53;;
4268;SDS011;2148;48.554;7.834;2022-08-03T04:03:45;3.70;;;3.40;;
4268;SDS011;2148;48.554;7.834;2022-08-03T04:06:10;3.63;;;3.33;;
4268;SDS011;2148;48.554;7.834;2022-08-03T04:08:55;3.73;;;3.00;;
4268;SDS011;2148;48.554;7.834;2022-08-03T04:11:44;4.13;;;3.63;;
4268;SDS011;2148;48.554;7.834;2022-08-03T04:17:01;3.83;;;3.50;;
4268;SDS011;2148;48.554;7.834;2022-08-03T04:19:44;3.83;;;3.40;;
4268;SDS011;2148;48.554;7.834;2022-08-03T04:22:13;3.70;;;3.13;;
4268;SDS011;2148;48.554;7.834;2022-08-03T04:24:42;4.10;;;3.27;;
4268;SDS011;2148;48.554;7.834;2022-08-03T04:27:11;3.57;;;3.27;;
4268;SDS011;2148;48.554;7.834;2022-08-03T04:29:40;3.70;;;3.30;;
4268;SDS011;2148;48.554;7.834;2022-08-03T04:32:07;5.37;;;3.50;;
4268;SDS011;2148;48.554;7.834;2022-08-03T04:34:33;3.80;;;3.50;;
4268;SDS011;2148;48.554;7.834;2022-08-03T04:37:00;3.63;;;3.33;;
4268;SDS011;2148;48.554;7.834;2022-08-03T04:39:29;3.60;;;3.30;;
4268;SDS011;2148;48.554;7.834;2022-08-03T04:41:59;3.33;;;3.07;;
4268;SDS011;2148;48.554;7.834;2022-08-03T04:44:27;4.40;;;3.23;;
4268;SDS011;2148;48.554;7.834;2022-08-03T04:46:53;4.20;;;3.10;;
4268;SDS011;2148;48.554;7.834;2022-08-03T04:49:21;3.87;;;3.47;;
4268;SDS011;2148;48.554;7.834;2022-08-03T04:51:47;3.97;;;3.10;;
4268;SDS011;2148;48.554;7.834;2022-08-03T04:54:13;4.67;;;3.20;;
4268;SDS011;2148;48.554;7.834;2022-08-03T04:56:39;3.87;;;2.97;;
4268;SDS011;2148;48.554;7.834;2022-08-03T04:59:05;4.53;;;3.27;;
4268;SDS011;2148;48.554;7.834;2022-08-03T05:01:31;5.30;;;3.60;;
4268;SDS011;2148;48.554;7.834;2022-08-03T05:03:56;3.67;;;3.37;;
4268;SDS011;2148;48.554;7.834;2022-08-03T05:06:21;3.93;;;3.50;;
4268;SDS011;2148;48.554;7.834;2022-08-03T05:08:47;4.20;;;3.57;;
4268;SDS011;2148;48.554;7.834;2022-08-03T05:11:12;6.60;;;3.93;;
4268;SDS011;2148;48.554;7.834;2022-08-03T05:13:39;7.40;;;3.50;;
4268;SDS011;2148;48.554;7.834;2022-08-03T05:16:04;14.87;;;4.47;;
4268;SDS011;2148;48.554;7.834;2022-08-03T05:18:29;12.43;;;4.60;;
4268;SDS011;2148;48.554;7.834;2022-08-03T05:20:56;11.03;;;4.13;;
4268;SDS011;2148;48.554;7.834;2022-08-03T05:23:21;11.67;;;4.43;;
4268;SDS011;2148;48.554;7.834;2022-08-03T05:25:46;8.73;;;4.33;;
4268;SDS011;2148;48.554;7.834;2022-08-03T05:28:11;9.03;;;3.67;;
4268;SDS011;2148;48.554;7.834;2022-08-03T05:30:37;7.57;;;3.83;;
4268;SDS011;2148;48.554;7.834;2022-08-03T05:33:02;9.17;;;3.60;;
4268;SDS011;2148;48.554;7.834;2022-08-03T05:35:28;5.13;;;3.80;;
4268;SDS011;2148;48.554;7.834;2022-08-03T05:37:53;6.53;;;4.47;;
4268;SDS011;2148;48.554;7.834;2022-08-03T05:40:20;6.17;;;5.57;;
4268;SDS011;2148;48.554;7.834;2022-08-03T05:42:45;6.53;;;5.03;;
4268;SDS011;2148;48.554;7.834;2022-08-03T05:45:10;7.63;;;4.90;;
4268;SDS011;2148;48.554;7.834;2022-08-03T05:47:39;5.73;;;5.17;;
4268;SDS011;2148;48.554;7.834;2022-08-03T05:50:08;4.77;;;4.37;;
4268;SDS011;2148;48.554;7.834;2022-08-03T05:52:37;5.87;;;4.40;;
4268;SDS011;2148;48.554;7.834;2022-08-03T05:55:04;5.27;;;4.70;;
4268;SDS011;2148;48.554;7.834;2022-08-03T05:57:33;5.13;;;4.73;;
4268;SDS011;2148;48.554;7.834;2022-08-03T05:59:58;5.70;;;5.20;;
4268;SDS011;2148;48.554;7.834;2022-08-03T06:02:27;7.03;;;4.90;;
4268;SDS011;2148;48.554;7.834;2022-08-03T06:04:52;5.63;;;4.97;;
4268;SDS011;2148;48.554;7.834;2022-08-03T06:07:17;5.77;;;5.17;;
4268;SDS011;2148;48.554;7.834;2022-08-03T06:09:43;8.07;;;5.30;;
4268;SDS011;2148;48.554;7.834;2022-08-03T06:12:08;7.53;;;5.23;;
4268;SDS011;2148;48.554;7.834;2022-08-03T06:14:33;6.00;;;5.17;;
4268;SDS011;2148;48.554;7.834;2022-08-03T06:16:58;6.33;;;4.60;;
4268;SDS011;2148;48.554;7.834;2022-08-03T06:19:24;7.40;;;5.87;;
4268;SDS011;2148;48.554;7.834;2022-08-03T06:21:51;6.53;;;5.50;;
4268;SDS011;2148;48.554;7.834;2022-08-03T06:24:16;6.80;;;5.80;;
4268;SDS011;2148;48.554;7.834;2022-08-03T06:26:41;9.03;;;6.37;;
4268;SDS011;2148;48.554;7.834;2022-08-03T06:29:06;8.37;;;6.23;;
4268;SDS011;2148;48.554;7.834;2022-08-03T06:31:31;6.10;;;5.30;;
4268;SDS011;2148;48.554;7.834;2022-08-03T06:33:57;6.90;;;5.23;;
4268;SDS011;2148;48.554;7.834;2022-08-03T06:36:22;8.63;;;5.57;;
4268;SDS011;2148;48.554;7.834;2022-08-03T06:38:47;7.57;;;5.10;;
4268;SDS011;2148;48.554;7.834;2022-08-03T06:41:13;6.67;;;5.27;;
4268;SDS011;2148;48.554;7.834;2022-08-03T06:43:38;7.77;;;5.50;;
4268;SDS011;2148;48.554;7.834;2022-08-03T06:46:04;7.23;;;5.37;;
4268;SDS011;2148;48.554;7.834;2022-08-03T06:48:29;8.83;;;5.50;;
4268;SDS011;2148;48.554;7.834;2022-08-03T06:50:55;8.00;;;5.33;;
4268;SDS011;2148;48.554;7.834;2022-08-03T06:53:20;12.23;;;5.80;;
4268;SDS011;2148;48.554;7.834;2022-08-03T06:55:45;6.67;;;5.17;;
4268;SDS011;2148;48.554;7.834;2022-08-03T06:58:10;7.23;;;5.63;;
4268;SDS011;2148;48.554;7.834;2022-08-03T07:00:36;9.30;;;5.53;;
4268;SDS011;2148;48.554;7.834;2022-08-03T07:03:01;8.33;;;5.90;;
4268;SDS011;2148;48.554;7.834;2022-08-03T07:05:27;8.60;;;6.07;;
4268;SDS011;2148;48.554;7.834;2022-08-03T07:07:55;7.10;;;6.10;;
4268;SDS011;2148;48.554;7.834;2022-08-03T07:10:25;9.47;;;6.00;;
4268;SDS011;2148;48.554;7.834;2022-08-03T07:12:51;11.30;;;5.73;;
4268;SDS011;2148;48.554;7.834;2022-08-03T07:15:17;10.87;;;6.00;;
4268;SDS011;2148;48.554;7.834;2022-08-03T07:17:42;6.37;;;5.70;;
4268;SDS011;2148;48.554;7.834;2022-08-03T07:20:07;7.37;;;5.70;;
4268;SDS011;2148;48.554;7.834;2022-08-03T07:22:33;5.87;;;5.17;;
4268;SDS011;2148;48.554;7.834;2022-08-03T07:24:59;8.77;;;5.80;;
4268;SDS011;2148;48.554;7.834;2022-08-03T07:27:24;7.10;;;5.10;;
4268;SDS011;2148;48.554;7.834;2022-08-03T07:29:51;8.07;;;6.53;;
4268;SDS011;2148;48.554;7.834;2022-08-03T07:32:16;10.13;;;6.53;;
4268;SDS011;2148;48.554;7.834;2022-08-03T07:34:42;8.37;;;5.50;;
4268;SDS011;2148;48.554;7.834;2022-08-03T07:37:07;11.90;;;5.77;;
4268;SDS011;2148;48.554;7.834;2022-08-03T07:39:32;8.87;;;5.53;;
4268;SDS011;2148;48.554;7.834;2022-08-03T07:41:57;9.93;;;5.50;;
4268;SDS011;2148;48.554;7.834;2022-08-03T07:44:23;5.67;;;4.57;;
4268;SDS011;2148;48.554;7.834;2022-08-03T07:46:48;7.50;;;5.47;;
4268;SDS011;2148;48.554;7.834;2022-08-03T07:49:14;7.07;;;4.83;;
4268;SDS011;2148;48.554;7.834;2022-08-03T07:51:40;10.27;;;5.20;;
4268;SDS011;2148;48.554;7.834;2022-08-03T07:54:05;12.50;;;5.33;;
4268;SDS011;2148;48.554;7.834;2022-08-03T07:56:31;12.93;;;6.17;;
4268;SDS011;2148;48.554;7.834;2022-08-03T07:58:57;11.17;;;5.67;;
4268;SDS011;2148;48.554;7.834;2022-08-03T08:01:23;7.40;;;4.90;;
4268;SDS011;2148;48.554;7.834;2022-08-03T08:03:49;9.53;;;5.20;;
4268;SDS011;2148;48.554;7.834;2022-08-03T08:06:15;8.43;;;5.13;;
4268;SDS011;2148;48.554;7.834;2022-08-03T08:08:41;9.23;;;5.90;;
4268;SDS011;2148;48.554;7.834;2022-08-03T08:11:07;7.57;;;5.00;;
4268;SDS011;2148;48.554;7.834;2022-08-03T08:13:32;5.37;;;4.30;;
4268;SDS011;2148;48.554;7.834;2022-08-03T08:15:58;4.83;;;4.43;;
4268;SDS011;2148;48.554;7.834;2022-08-03T08:18:23;6.30;;;4.60;;
4268;SDS011;2148;48.554;7.834;2022-08-03T08:20:49;5.63;;;4.53;;
4268;SDS011;2148;48.554;7.834;2022-08-03T08:23:15;9.97;;;4.60;;
4268;SDS011;2148;48.554;7.834;2022-08-03T08:25:46;11.13;;;4.83;;
4268;SDS011;2148;48.554;7.834;2022-08-03T08:28:12;4.80;;;4.30;;
4268;SDS011;2148;48.554;7.834;2022-08-03T08:30:37;4.73;;;4.27;;
4268;SDS011;2148;48.554;7.834;2022-08-03T08:33:03;5.90;;;4.53;;
4268;SDS011;2148;48.554;7.834;2022-08-03T08:35:28;7.13;;;4.60;;
4268;SDS011;2148;48.554;7.834;2022-08-03T08:37:53;7.57;;;4.57;;
4268;SDS011;2148;48.554;7.834;2022-08-03T08:40:19;7.93;;;4.60;;
4268;SDS011;2148;48.554;7.834;2022-08-03T08:42:45;8.07;;;4.17;;
4268;SDS011;2148;48.554;7.834;2022-08-03T08:45:11;6.60;;;4.40;;
4268;SDS011;2148;48.554;7.834;2022-08-03T08:47:39;5.67;;;4.30;;
4268;SDS011;2148;48.554;7.834;2022-08-03T08:50:06;7.43;;;4.50;;
4268;SDS011;2148;48.554;7.834;2022-08-03T08:52:33;8.00;;;4.77;;
4268;SDS011;2148;48.554;7.834;2022-08-03T08:55:06;5.83;;;4.03;;
4268;SDS011;2148;48.554;7.834;2022-08-03T08:57:34;5.23;;;4.07;;
4268;SDS011;2148;48.554;7.834;2022-08-03T09:00:07;6.20;;;4.00;;
4268;SDS011;2148;48.554;7.834;2022-08-03T09:02:35;6.97;;;4.10;;
4268;SDS011;2148;48.554;7.834;2022-08-03T09:05:00;7.53;;;4.40;;
4268;SDS011;2148;48.554;7.834;2022-08-03T09:07:26;7.73;;;4.10;;
4268;SDS011;2148;48.554;7.834;2022-08-03T09:09:52;6.83;;;3.80;;
4268;SDS011;2148;48.554;7.834;2022-08-03T09:12:18;6.00;;;4.20;;
4268;SDS011;2148;48.554;7.834;2022-08-03T09:14:43;5.47;;;4.10;;
4268;SDS011;2148;48.554;7.834;2022-08-03T09:17:09;4.10;;;3.70;;
4268;SDS011;2148;48.554;7.834;2022-08-03T09:19:34;5.50;;;3.77;;
4268;SDS011;2148;48.554;7.834;2022-08-03T09:24:32;6.93;;;4.20;;
4268;SDS011;2148;48.554;7.834;2022-08-03T09:26:57;4.70;;;3.80;;
4268;SDS011;2148;48.554;7.834;2022-08-03T09:29:22;5.43;;;3.50;;
4268;SDS011;2148;48.554;7.834;2022-08-03T09:31:47;5.47;;;3.83;;
4268;SDS011;2148;48.554;7.834;2022-08-03T09:34:14;6.77;;;3.80;;
4268;SDS011;2148;48.554;7.834;2022-08-03T09:39:20;3.93;;;3.47;;
4268;SDS011;2148;48.554;7.834;2022-08-03T09:41:47;4.20;;;3.20;;
4268;SDS011;2148;48.554;7.834;2022-08-03T09:44:37;6.28;;;3.50;;
4268;SDS011;2148;48.554;7.834;2022-08-03T09:47:08;6.83;;;4.03;;
4268;SDS011;2148;48.554;7.834;2022-08-03T09:49:34;4.90;;;3.23;;
4268;SDS011;2148;48.554;7.834;2022-08-03T09:52:01;3.47;;;3.17;;
4268;SDS011;2148;48.554;7.834;2022-08-03T09:54:36;4.23;;;3.23;;
4268;SDS011;2148;48.554;7.834;2022-08-03T09:57:02;3.42;;;3.13;;
4268;SDS011;2148;48.554;7.834;2022-08-03T09:59:28;6.03;;;3.50;;
4268;SDS011;2148;48.554;7.834;2022-08-03T10:01:54;4.33;;;3.27;;
4268;SDS011;2148;48.554;7.834;2022-08-03T10:04:20;4.10;;;3.03;;
4268;SDS011;2148;48.554;7.834;2022-08-03T10:09:28;4.30;;;3.00;;
4268;SDS011;2148;48.554;7.834;2022-08-03T10:11:53;2.95;;;2.75;;
4268;SDS011;2148;48.554;7.834;2022-08-03T10:14:19;4.57;;;3.00;;
4268;SDS011;2148;48.554;7.834;2022-08-03T10:16:45;3.67;;;2.78;;
4268;SDS011;2148;48.554;7.834;2022-08-03T10:19:11;5.07;;;3.00;;
4268;SDS011;2148;48.554;7.834;2022-08-03T10:21:39;3.50;;;2.80;;
4268;SDS011;2148;48.554;7.834;2022-08-03T10:24:06;3.20;;;2.55;;
4268;SDS011;2148;48.554;7.834;2022-08-03T10:26:33;2.50;;;2.30;;
4268;SDS011;2148;48.554;7.834;2022-08-03T10:28:59;3.05;;;2.75;;
4268;SDS011;2148;48.554;7.834;2022-08-03T10:31:31;2.45;;;2.25;;
4268;SDS011;2148;48.554;7.834;2022-08-03T10:33:59;3.00;;;2.25;;
4268;SDS011;2148;48.554;7.834;2022-08-03T10:36:26;2.60;;;2.25;;
4268;SDS011;2148;48.554;7.834;2022-08-03T10:38:51;3.47;;;2.40;;
4268;SDS011;2148;48.554;7.834;2022-08-03T10:41:21;3.10;;;2.40;;
4268;SDS011;2148;48.554;7.834;2022-08-03T10:44:04;3.13;;;2.50;;
4268;SDS011;2148;48.554;7.834;2022-08-03T10:46:32;3.17;;;2.17;;
4268;SDS011;2148;48.554;7.834;2022-08-03T10:48:59;3.28;;;2.30;;
4268;SDS011;2148;48.554;7.834;2022-08-03T10:51:24;3.28;;;2.83;;
4268;SDS011;2148;48.554;7.834;2022-08-03T10:53:54;2.85;;;2.03;;
4268;SDS011;2148;48.554;7.834;2022-08-03T10:59:21;3.40;;;3.10;;
4268;SDS011;2148;48.554;7.834;2022-08-03T11:02:10;2.60;;;2.40;;
4268;SDS011;2148;48.554;7.834;2022-08-03T11:04:37;2.45;;;2.22;;
4268;SDS011;2148;48.554;7.834;2022-08-03T11:09:44;3.00;;;2.80;;
4268;SDS011;2148;48.554;7.834;2022-08-03T11:12:20;2.90;;;2.60;;
4268;SDS011;2148;48.554;7.834;2022-08-03T11:14:46;2.45;;;2.25;;
4268;SDS011;2148;48.554;7.834;2022-08-03T11:17:12;3.72;;;2.08;;
4268;SDS011;2148;48.554;7.834;2022-08-03T11:19:43;2.17;;;1.98;;
4268;SDS011;2148;48.554;7.834;2022-08-03T11:22:10;2.30;;;2.10;;
4268;SDS011;2148;48.554;7.834;2022-08-03T11:40:33;2.00;;;1.88;;
4268;SDS011;2148;48.554;7.834;2022-08-03T11:43:06;2.17;;;1.90;;
4268;SDS011;2148;48.554;7.834;2022-08-03T11:45:33;3.28;;;2.03;;
4268;SDS011;2148;48.554;7.834;2022-08-03T11:48:01;2.20;;;2.00;;
4268;SDS011;2148;48.554;7.834;2022-08-03T11:50:37;2.20;;;2.00;;
4268;SDS011;2148;48.554;7.834;2022-08-03T11:53:02;3.40;;;2.08;;
4268;SDS011;2148;48.554;7.834;2022-08-03T11:55:29;2.05;;;1.85;;
4268;SDS011;2148;48.554;7.834;2022-08-03T11:57:57;2.85;;;2.00;;
4268;SDS011;2148;48.554;7.834;2022-08-03T12:00:24;2.47;;;2.28;;
4268;SDS011;2148;48.554;7.834;2022-08-03T12:02:58;2.13;;;1.90;;
4268;SDS011;2148;48.554;7.834;2022-08-03T12:05:36;4.35;;;2.25;;
4268;SDS011;2148;48.554;7.834;2022-08-03T12:08:01;3.17;;;2.00;;
4268;SDS011;2148;48.554;7.834;2022-08-03T12:10:27;3.70;;;2.10;;
4268;SDS011;2148;48.554;7.834;2022-08-03T12:12:54;3.55;;;2.25;;
4268;SDS011;2148;48.554;7.834;2022-08-03T12:15:26;1.90;;;1.80;;
4268;SDS011;2148;48.554;7.834;2022-08-03T12:17:53;2.38;;;1.70;;
4268;SDS011;2148;48.554;7.834;2022-08-03T12:20:21;2.35;;;2.13;;
4268;SDS011;2148;48.554;7.834;2022-08-03T12:22:47;2.78;;;2.33;;
4268;SDS011;2148;48.554;7.834;2022-08-03T12:25:19;2.40;;;2.20;;
4268;SDS011;2148;48.554;7.834;2022-08-03T12:27:47;3.45;;;2.38;;
4268;SDS011;2148;48.554;7.834;2022-08-03T12:30:12;2.45;;;2.08;;
4268;SDS011;2148;48.554;7.834;2022-08-03T12:32:38;2.13;;;1.92;;
4268;SDS011;2148;48.554;7.834;2022-08-03T12:35:03;3.60;;;2.13;;
4268;SDS011;2148;48.554;7.834;2022-08-03T12:37:30;2.10;;;1.83;;
4268;SDS011;2148;48.554;7.834;2022-08-03T12:39:56;2.90;;;2.42;;
4268;SDS011;2148;48.554;7.834;2022-08-03T12:42:30;2.45;;;2.00;;
4268;SDS011;2148;48.554;7.834;2022-08-03T12:44:59;2.72;;;2.03;;
4268;SDS011;2148;48.554;7.834;2022-08-03T12:47:24;1.85;;;1.73;;
4268;SDS011;2148;48.554;7.834;2022-08-03T12:49:51;2.33;;;2.13;;
4268;SDS011;2148;48.554;7.834;2022-08-03T12:52:17;2.65;;;2.20;;
4268;SDS011;2148;48.554;7.834;2022-08-03T12:54:54;2.20;;;1.98;;
4268;SDS011;2148;48.554;7.834;2022-08-03T12:57:20;1.90;;;1.80;;
4268;SDS011;2148;48.554;7.834;2022-08-03T12:59:45;2.17;;;1.90;;
4268;SDS011;2148;48.554;7.834;2022-08-03T13:02:19;1.92;;;1.83;;
4268;SDS011;2148;48.554;7.834;2022-08-03T13:04:46;2.78;;;2.03;;
4268;SDS011;2148;48.554;7.834;2022-08-03T13:07:12;2.20;;;2.00;;
4268;SDS011;2148;48.554;7.834;2022-08-03T13:09:48;2.65;;;2.10;;
4268;SDS011;2148;48.554;7.834;2022-08-03T13:12:17;2.10;;;1.95;;
4268;SDS011;2148;48.554;7.834;2022-08-03T13:14:44;2.20;;;1.90;;
4268;SDS011;2148;48.554;7.834;2022-08-03T13:17:10;2.78;;;2.05;;
4268;SDS011;2148;48.554;7.834;2022-08-03T13:19:36;2.50;;;1.90;;
4268;SDS011;2148;48.554;7.834;2022-08-03T13:22:09;2.17;;;1.98;;
4268;SDS011;2148;48.554;7.834;2022-08-03T13:24:42;4.95;;;2.10;;
4268;SDS011;2148;48.554;7.834;2022-08-03T13:27:09;3.13;;;2.30;;
4268;SDS011;2148;48.554;7.834;2022-08-03T13:29:34;2.75;;;2.20;;
4268;SDS011;2148;48.554;7.834;2022-08-03T13:32:00;2.50;;;2.30;;
4268;SDS011;2148;48.554;7.834;2022-08-03T13:34:26;3.30;;;2.13;;
4268;SDS011;2148;48.554;7.834;2022-08-03T13:36:52;2.30;;;2.10;;
4268;SDS011;2148;48.554;7.834;2022-08-03T13:39:17;2.42;;;2.22;;
4268;SDS011;2148;48.554;7.834;2022-08-03T13:41:43;1.95;;;1.80;;
4268;SDS011;2148;48.554;7.834;2022-08-03T13:44:09;2.38;;;2.17;;
4268;SDS011;2148;48.554;7.834;2022-08-03T13:46:34;2.20;;;2.00;;
4268;SDS011;2148;48.554;7.834;2022-08-03T13:48:59;3.42;;;1.90;;
4268;SDS011;2148;48.554;7.834;2022-08-03T13:51:25;3.53;;;2.05;;
4268;SDS011;2148;48.554;7.834;2022-08-03T13:53:50;2.92;;;2.10;;
4268;SDS011;2148;48.554;7.834;2022-08-03T13:56:16;1.90;;;1.80;;
4268;SDS011;2148;48.554;7.834;2022-08-03T13:58:41;2.35;;;1.90;;
4268;SDS011;2148;48.554;7.834;2022-08-03T14:01:07;3.03;;;2.10;;
4268;SDS011;2148;48.554;7.834;2022-08-03T14:03:32;2.13;;;1.80;;
4268;SDS011;2148;48.554;7.834;2022-08-03T14:05:57;2.53;;;2.17;;
4268;SDS011;2148;48.554;7.834;2022-08-03T14:08:23;4.53;;;2.05;;
4268;SDS011;2148;48.554;7.834;2022-08-03T14:10:48;2.20;;;2.00;;
4268;SDS011;2148;48.554;7.834;2022-08-03T14:13:13;2.33;;;2.13;;
4268;SDS011;2148;48.554;7.834;2022-08-03T14:15:39;2.00;;;1.80;;
4268;SDS011;2148;48.554;7.834;2022-08-03T14:18:06;6.03;;;2.10;;
4268;SDS011;2148;48.554;7.834;2022-08-03T14:20:32;2.03;;;1.70;;
4268;SDS011;2148;48.554;7.834;2022-08-03T14:22:57;2.45;;;1.80;;
4268;SDS011;2148;48.554;7.834;2022-08-03T14:25:23;2.15;;;1.85;;
4268;SDS011;2148;48.554;7.834;2022-08-03T14:27:48;3.47;;;1.92;;
4268;SDS011;2148;48.554;7.834;2022-08-03T14:30:13;1.95;;;1.42;;
4268;SDS011;2148;48.554;7.834;2022-08-03T14:32:40;1.50;;;1.35;;
4268;SDS011;2148;48.554;7.834;2022-08-03T14:35:06;1.95;;;1.40;;
4268;SDS011;2148;48.554;7.834;2022-08-03T14:37:31;1.80;;;1.70;;
4268;SDS011;2148;48.554;7.834;2022-08-03T14:39:57;1.42;;;1.33;;
4268;SDS011;2148;48.554;7.834;2022-08-03T14:42:23;2.20;;;1.48;;
4268;SDS011;2148;48.554;7.834;2022-08-03T14:44:48;1.60;;;1.50;;
4268;SDS011;2148;48.554;7.834;2022-08-03T14:47:13;1.40;;;1.30;;
4268;SDS011;2148;48.554;7.834;2022-08-03T14:49:39;1.50;;;1.40;;
4268;SDS011;2148;48.554;7.834;2022-08-03T14:52:04;1.50;;;1.40;;
4268;SDS011;2148;48.554;7.834;2022-08-03T14:54:29;1.52;;;1.42;;
4268;SDS011;2148;48.554;7.834;2022-08-03T14:56:55;2.13;;;1.50;;
4268;SDS011;2148;48.554;7.834;2022-08-03T14:59:21;2.45;;;1.70;;
4268;SDS011;2148;48.554;7.834;2022-08-03T15:01:46;1.70;;;1.60;;
4268;SDS011;2148;48.554;7.834;2022-08-03T15:04:11;2.20;;;1.67;;
4268;SDS011;2148;48.554;7.834;2022-08-03T15:06:36;1.63;;;1.48;;
4268;SDS011;2148;48.554;7.834;2022-08-03T15:09:02;2.38;;;1.77;;
4268;SDS011;2148;48.554;7.834;2022-08-03T15:11:27;2.08;;;1.80;;
4268;SDS011;2148;48.554;7.834;2022-08-03T15:13:52;1.88;;;1.77;;
4268;SDS011;2148;48.554;7.834;2022-08-03T15:16:18;2.72;;;1.58;;
4268;SDS011;2148;48.554;7.834;2022-08-03T15:18:43;2.03;;;1.83;;
4268;SDS011;2148;48.554;7.834;2022-08-03T15:21:08;5.43;;;1.95;;
4268;SDS011;2148;48.554;7.834;2022-08-03T15:23:33;1.83;;;1.73;;
4268;SDS011;2148;48.554;7.834;2022-08-03T15:25:59;3.55;;;1.92;;
4268;SDS011;2148;48.554;7.834;2022-08-03T15:28:24;2.20;;;1.80;;
4268;SDS011;2148;48.554;7.834;2022-08-03T15:30:52;2.25;;;2.05;;
4268;SDS011;2148;48.554;7.834;2022-08-03T15:33:18;1.80;;;1.70;;
4268;SDS011;2148;48.554;7.834;2022-08-03T15:35:43;1.85;;;1.75;;
4268;SDS011;2148;48.554;7.834;2022-08-03T15:38:10;2.15;;;1.67;;
4268;SDS011;2148;48.554;7.834;2022-08-03T15:40:35;1.85;;;1.70;;
4268;SDS011;2148;48.554;7.834;2022-08-03T15:43:01;2.20;;;2.00;;
4268;SDS011;2148;48.554;7.834;2022-08-03T15:45:26;2.22;;;1.70;;
4268;SDS011;2148;48.554;7.834;2022-08-03T15:47:52;2.42;;;2.00;;
4268;SDS011;2148;48.554;7.834;2022-08-03T15:50:17;2.03;;;1.83;;
4268;SDS011;2148;48.554;7.834;2022-08-03T15:52:42;1.95;;;1.85;;
4268;SDS011;2148;48.554;7.834;2022-08-03T15:55:08;2.63;;;1.95;;